Time;durP1;ratioP1;P1;durP2;ratioP2;P2;SDS_P1;SDS_P2;PMS_P1;PMS_P2;Temp;Humidity;BMP_temperature;BMP_pressure;BME280_temperature;BME280_humidity;BME280_pressure;Samples;Min_cycle;Max_cycle;Signal;HPM_P1;HPM_P2
2021/10/12 00:00:05;;;;;;;145.90;66.88;;;7.60;99.90;;;;;;4947559;29;20375;-74
2021/10/12 00:02:30;;;;;;;151.60;68.45;;;7.60;99.90;;;;;;4946356;29;20028;-75
2021/10/12 00:04:56;;;;;;;150.85;65.55;;;7.60;99.90;;;;;;4931384;29;20055;-74
2021/10/12 00:07:22;;;;;;;148.55;66.13;;;7.50;99.90;;;;;;4946330;29;20031;-74
2021/10/12 00:09:47;;;;;;;172.43;71.25;;;7.60;99.90;;;;;;4928903;29;20553;-74
2021/10/12 00:12:13;;;;;;;152.57;65.65;;;7.60;99.90;;;;;;4953635;29;20033;-75
2021/10/12 00:14:38;;;;;;;136.88;63.42;;;7.60;99.90;;;;;;4940914;29;20026;-74
2021/10/12 00:17:04;;;;;;;114.70;57.78;;;7.60;99.90;;;;;;4941905;29;20106;-73
2021/10/12 00:19:29;;;;;;;156.40;67.20;;;7.60;99.90;;;;;;4952988;29;20080;-74
2021/10/12 00:21:55;;;;;;;152.27;66.15;;;7.70;99.90;;;;;;4942175;29;20412;-74
2021/10/12 00:24:20;;;;;;;148.63;64.75;;;7.70;99.90;;;;;;4947265;29;20043;-74
2021/10/12 00:26:46;;;;;;;160.65;66.15;;;7.70;99.90;;;;;;4928294;29;20045;-74
2021/10/12 00:29:11;;;;;;;182.18;71.82;;;7.70;99.90;;;;;;4940699;29;20062;-74
2021/10/12 00:31:37;;;;;;;134.88;62.05;;;7.60;99.90;;;;;;4925399;29;20028;-74
2021/10/12 00:34:03;;;;;;;146.05;63.08;;;7.60;99.90;;;;;;4930074;29;20027;-74
2021/10/12 00:36:28;;;;;;;149.85;64.60;;;7.70;99.90;;;;;;4945251;29;20646;-74
2021/10/12 00:38:54;;;;;;;157.40;66.32;;;7.60;99.90;;;;;;4925691;29;20027;-74
2021/10/12 00:41:21;;;;;;;159.63;67.40;;;7.60;99.90;;;;;;4957392;29;20085;-74
2021/10/12 00:43:47;;;;;;;165.05;67.82;;;7.60;99.90;;;;;;4927662;29;20024;-75
2021/10/12 00:46:13;;;;;;;156.10;68.38;;;7.50;99.90;;;;;;4957192;29;20039;-74
2021/10/12 00:48:38;;;;;;;150.52;66.07;;;7.60;99.90;;;;;;4952584;29;20023;-75
2021/10/12 00:51:04;;;;;;;181.95;71.78;;;7.60;99.90;;;;;;4948773;29;20023;-75
2021/10/12 00:53:30;;;;;;;134.13;60.20;;;7.60;99.90;;;;;;4926803;29;20034;-74
2021/10/12 00:55:56;;;;;;;160.65;65.78;;;7.60;99.90;;;;;;4929241;29;20027;-75
2021/10/12 00:58:21;;;;;;;135.68;60.42;;;7.70;99.90;;;;;;4937756;29;20024;-74
2021/10/12 01:00:47;;;;;;;121.55;59.30;;;7.70;99.90;;;;;;4946150;29;20026;-74
2021/10/12 01:03:13;;;;;;;171.55;68.20;;;7.70;99.90;;;;;;4954908;29;20031;-74
2021/10/12 01:05:38;;;;;;;165.00;65.70;;;7.70;99.90;;;;;;4946307;29;20512;-74
2021/10/12 01:08:05;;;;;;;191.60;70.55;;;7.60;99.90;;;;;;4954648;29;20035;-74
2021/10/12 01:10:32;;;;;;;155.98;68.07;;;7.60;99.90;;;;;;4955609;28;20019;-74
2021/10/12 01:12:58;;;;;;;141.13;62.78;;;7.60;99.90;;;;;;4958088;28;20078;-73
2021/10/12 01:15:23;;;;;;;177.82;68.65;;;7.60;99.90;;;;;;4956816;29;20039;-73
2021/10/12 01:17:49;;;;;;;151.98;65.53;;;7.50;99.90;;;;;;4943799;29;20027;-73
2021/10/12 01:20:15;;;;;;;154.32;66.10;;;7.50;99.90;;;;;;4928629;29;20375;-73
2021/10/12 01:22:42;;;;;;;152.48;63.75;;;7.60;99.90;;;;;;4950107;29;20461;-73
2021/10/12 01:25:09;;;;;;;151.30;64.70;;;7.70;99.90;;;;;;4931777;29;20057;-73
2021/10/12 01:27:35;;;;;;;140.57;61.40;;;7.70;99.90;;;;;;4943435;29;20046;-73
2021/10/12 01:30:01;;;;;;;145.30;62.70;;;7.60;99.90;;;;;;4956605;29;20020;-75
2021/10/12 01:32:26;;;;;;;169.43;67.63;;;7.60;99.90;;;;;;4943332;29;20086;-75
2021/10/12 01:34:52;;;;;;;165.25;66.18;;;7.60;99.90;;;;;;4945344;29;20391;-75
2021/10/12 01:37:17;;;;;;;165.50;67.65;;;7.50;99.90;;;;;;4932627;29;20041;-75
2021/10/12 01:39:43;;;;;;;189.75;70.65;;;7.50;99.90;;;;;;4948063;29;20482;-75
2021/10/12 01:42:08;;;;;;;184.40;70.72;;;7.50;99.90;;;;;;4938696;29;20028;-75
2021/10/12 01:44:34;;;;;;;163.38;67.60;;;7.50;99.90;;;;;;4947754;29;20034;-75
2021/10/12 01:46:59;;;;;;;168.48;67.15;;;7.60;99.90;;;;;;4943347;29;20033;-75
2021/10/12 01:49:25;;;;;;;168.68;66.90;;;7.60;99.90;;;;;;4938458;28;20034;-75
2021/10/12 01:51:50;;;;;;;145.00;63.33;;;7.70;99.90;;;;;;4942926;29;20031;-74
2021/10/12 01:54:21;;;;;;;131.07;61.50;;;7.70;99.90;;;;;;4945915;29;20028;-75
2021/10/12 01:56:49;;;;;;;133.35;60.35;;;7.80;99.90;;;;;;4949963;29;20028;-75
2021/10/12 01:59:15;;;;;;;152.98;63.25;;;7.70;99.90;;;;;;4947806;29;20110;-75
2021/10/12 02:01:41;;;;;;;164.90;64.50;;;7.70;99.90;;;;;;4944355;29;20110;-74
2021/10/12 02:04:07;;;;;;;159.30;64.53;;;7.60;99.90;;;;;;4946394;29;20028;-75
2021/10/12 02:06:33;;;;;;;163.23;65.22;;;7.60;99.90;;;;;;4924808;29;20032;-75
2021/10/12 02:08:58;;;;;;;158.85;64.93;;;7.60;99.90;;;;;;4949213;29;20028;-74
2021/10/12 02:11:24;;;;;;;129.98;59.75;;;7.60;99.90;;;;;;4956211;29;20039;-75
2021/10/12 02:13:49;;;;;;;152.35;62.53;;;7.70;99.90;;;;;;4927476;29;20107;-75
2021/10/12 02:16:15;;;;;;;166.63;66.22;;;7.70;99.90;;;;;;4949294;29;20030;-74
2021/10/12 02:18:40;;;;;;;142.00;61.83;;;7.60;99.90;;;;;;4947853;29;20039;-76
2021/10/12 02:21:06;;;;;;;139.88;60.55;;;7.60;99.90;;;;;;4920421;29;20170;-75
2021/10/12 02:23:31;;;;;;;190.98;69.55;;;7.60;99.90;;;;;;4947534;29;20027;-75
2021/10/12 02:25:57;;;;;;;145.07;63.20;;;7.60;99.90;;;;;;4925289;29;20027;-75
2021/10/12 02:28:22;;;;;;;156.80;66.22;;;7.60;99.90;;;;;;4927215;29;20441;-76
2021/10/12 02:30:48;;;;;;;185.35;65.97;;;7.50;99.90;;;;;;4948946;29;20475;-75
2021/10/12 02:33:14;;;;;;;154.77;62.83;;;7.50;99.90;;;;;;4930031;29;20674;-74
2021/10/12 02:35:40;;;;;;;190.32;65.43;;;7.50;99.90;;;;;;4942485;29;20362;-75
2021/10/12 02:38:05;;;;;;;189.88;66.00;;;7.60;99.90;;;;;;4927170;29;20122;-75
2021/10/12 02:40:31;;;;;;;194.68;67.22;;;7.60;99.90;;;;;;4931704;29;20031;-73
2021/10/12 02:42:57;;;;;;;187.10;65.28;;;7.50;99.90;;;;;;4929469;29;20121;-74
2021/10/12 02:45:22;;;;;;;231.30;71.47;;;7.40;99.90;;;;;;4926863;29;20027;-74
2021/10/12 02:47:48;;;;;;;212.63;66.07;;;7.40;99.90;;;;;;4946218;29;20100;-73
2021/10/12 02:50:13;;;;;;;234.75;71.72;;;7.40;99.90;;;;;;4923059;29;20485;-74
2021/10/12 02:52:39;;;;;;;178.20;62.35;;;7.40;99.90;;;;;;4954884;29;20031;-74
2021/10/12 02:55:05;;;;;;;164.73;60.83;;;7.60;99.90;;;;;;4941977;29;20031;-75
2021/10/12 02:57:34;;;;;;;176.55;63.80;;;7.60;99.90;;;;;;4944437;29;20032;-75
2021/10/12 03:00:01;;;;;;;173.93;66.13;;;7.60;99.90;;;;;;4931491;29;20028;-74
2021/10/12 03:02:26;;;;;;;245.88;72.03;;;7.60;99.90;;;;;;4928354;29;20409;-74
2021/10/12 03:04:52;;;;;;;161.70;62.42;;;7.60;99.90;;;;;;4942519;29;20038;-75
2021/10/12 03:07:18;;;;;;;154.02;60.60;;;7.60;99.90;;;;;;4954617;29;20402;-75
2021/10/12 03:09:43;;;;;;;164.13;63.03;;;7.60;99.90;;;;;;4947279;29;20545;-76
2021/10/12 03:12:09;;;;;;;137.73;58.47;;;7.70;99.90;;;;;;4937246;29;20023;-74
2021/10/12 03:14:39;;;;;;;157.10;63.80;;;7.70;99.90;;;;;;4941674;29;20019;-74
2021/10/12 03:17:05;;;;;;;157.45;62.05;;;7.70;99.90;;;;;;4954534;29;20031;-74
2021/10/12 03:19:30;;;;;;;158.75;62.10;;;7.70;99.90;;;;;;4924548;29;20470;-74
2021/10/12 03:21:59;;;;;;;141.70;59.92;;;7.70;99.90;;;;;;4942510;29;20027;-74
2021/10/12 03:24:25;;;;;;;155.75;61.38;;;7.70;99.90;;;;;;4947985;29;20031;-74
2021/10/12 03:26:51;;;;;;;149.40;60.38;;;7.70;99.90;;;;;;4947276;28;20031;-75
2021/10/12 03:29:16;;;;;;;153.52;61.70;;;7.60;99.90;;;;;;4941322;29;20035;-73
2021/10/12 03:31:42;;;;;;;178.48;64.10;;;7.60;99.90;;;;;;4924972;29;20031;-74
2021/10/12 03:34:07;;;;;;;127.22;58.10;;;7.60;99.90;;;;;;4947975;29;20128;-73
2021/10/12 03:36:33;;;;;;;168.95;64.45;;;7.60;99.90;;;;;;4946748;29;20039;-74
2021/10/12 03:38:58;;;;;;;132.32;58.22;;;7.60;99.90;;;;;;4941402;29;20472;-74
2021/10/12 03:41:24;;;;;;;140.35;60.65;;;7.70;99.90;;;;;;4942209;29;20032;-74
2021/10/12 03:43:50;;;;;;;143.50;60.17;;;7.70;99.90;;;;;;4947676;29;20478;-75
2021/10/12 03:46:15;;;;;;;121.05;55.35;;;7.70;99.90;;;;;;4946502;29;20035;-75
2021/10/12 03:48:41;;;;;;;120.57;56.00;;;7.80;99.90;;;;;;4940836;29;20098;-75
2021/10/12 03:51:07;;;;;;;135.07;58.78;;;7.80;99.90;;;;;;4942527;29;20035;-74
2021/10/12 03:53:34;;;;;;;130.20;55.95;;;7.70;99.90;;;;;;4947702;29;20020;-75
2021/10/12 03:56:00;;;;;;;136.27;58.88;;;7.60;99.90;;;;;;4929514;29;20023;-75
2021/10/12 03:58:25;;;;;;;138.18;58.42;;;7.60;99.90;;;;;;4948784;29;20394;-75
2021/10/12 04:00:51;;;;;;;129.20;57.90;;;7.50;99.90;;;;;;4929161;29;20475;-76
2021/10/12 04:03:16;;;;;;;138.15;60.15;;;7.60;99.90;;;;;;4923765;29;20023;-76
2021/10/12 04:05:42;;;;;;;119.30;55.03;;;7.70;99.90;;;;;;4942616;29;20020;-76
2021/10/12 04:08:07;;;;;;;127.53;57.85;;;7.70;99.90;;;;;;4939749;29;20036;-77
2021/10/12 04:10:33;;;;;;;129.27;57.22;;;7.80;99.90;;;;;;4953524;29;20039;-76
2021/10/12 04:12:58;;;;;;;121.03;55.92;;;7.80;99.90;;;;;;4954595;28;20223;-75
2021/10/12 04:15:24;;;;;;;140.73;59.00;;;7.80;99.90;;;;;;4946486;29;20020;-76
2021/10/12 04:17:49;;;;;;;120.88;54.80;;;7.70;99.90;;;;;;4951342;29;20036;-76
2021/10/12 04:20:15;;;;;;;116.95;55.50;;;7.80;99.90;;;;;;4932643;29;20020;-76
2021/10/12 04:22:40;;;;;;;134.77;57.35;;;7.70;99.90;;;;;;4927691;29;20395;-75
2021/10/12 04:25:07;;;;;;;127.03;58.20;;;7.60;99.90;;;;;;4957692;29;20497;-75
2021/10/12 04:27:33;;;;;;;148.57;59.92;;;7.60;99.90;;;;;;4939497;28;20028;-74
2021/10/12 04:29:59;;;;;;;139.23;61.17;;;7.60;99.90;;;;;;4938647;29;20510;-75
2021/10/12 04:32:24;;;;;;;138.60;59.08;;;7.60;99.90;;;;;;4956094;29;20032;-75
2021/10/12 04:34:50;;;;;;;132.63;57.92;;;7.60;99.90;;;;;;4945892;29;20094;-75
2021/10/12 04:37:17;;;;;;;143.07;59.75;;;7.50;99.90;;;;;;4955954;29;20035;-75
2021/10/12 04:39:43;;;;;;;109.80;53.75;;;7.50;99.90;;;;;;4957407;29;20031;-75
2021/10/12 04:42:08;;;;;;;133.20;58.97;;;7.60;99.90;;;;;;4937656;29;20023;-74
2021/10/12 04:44:34;;;;;;;133.70;57.72;;;7.60;99.90;;;;;;4953334;28;20500;-76
2021/10/12 04:46:59;;;;;;;129.38;57.00;;;7.60;99.90;;;;;;4956814;29;20031;-74
2021/10/12 04:49:25;;;;;;;133.23;58.47;;;7.50;99.90;;;;;;4958580;29;20027;-73
2021/10/12 04:51:51;;;;;;;160.38;61.10;;;7.50;99.90;;;;;;4952988;29;20032;-73
2021/10/12 04:54:16;;;;;;;133.07;58.80;;;7.50;99.90;;;;;;4920708;29;20537;-74
2021/10/12 04:56:42;;;;;;;160.88;60.92;;;7.60;99.90;;;;;;4950636;29;20040;-73
2021/10/12 04:59:07;;;;;;;160.52;61.55;;;7.50;99.90;;;;;;4949001;29;20110;-74
2021/10/12 05:01:33;;;;;;;154.02;60.45;;;7.50;99.90;;;;;;4943938;29;20463;-74
2021/10/12 05:03:59;;;;;;;121.72;53.28;;;7.50;99.90;;;;;;4928622;29;20028;-73
2021/10/12 05:06:24;;;;;;;144.80;57.83;;;7.50;99.90;;;;;;4941767;29;20043;-73
2021/10/12 05:08:50;;;;;;;144.30;58.88;;;7.60;99.90;;;;;;4948923;29;20067;-74
2021/10/12 05:11:15;;;;;;;140.80;59.33;;;7.60;99.90;;;;;;4956468;28;20019;-73
2021/10/12 05:13:41;;;;;;;156.93;60.25;;;7.50;99.90;;;;;;4956636;28;20470;-74
2021/10/12 05:16:13;;;;;;;130.13;56.13;;;7.50;99.90;;;;;;4960591;28;20023;-74
2021/10/12 05:18:41;;;;;;;118.38;53.95;;;7.60;99.90;;;;;;4964501;28;20023;-74
2021/10/12 05:21:07;;;;;;;120.28;55.30;;;7.50;99.90;;;;;;4939103;29;20024;-74
2021/10/12 05:23:33;;;;;;;122.65;54.45;;;7.50;99.90;;;;;;4956555;29;20499;-74
2021/10/12 05:25:58;;;;;;;118.28;52.70;;;7.50;99.90;;;;;;4925307;29;20034;-73
2021/10/12 05:28:25;;;;;;;116.55;52.25;;;7.50;99.90;;;;;;4944786;29;20042;-73
2021/10/12 05:30:51;;;;;;;145.68;57.90;;;7.50;99.90;;;;;;4925136;29;20035;-73
2021/10/12 05:33:18;;;;;;;114.35;52.88;;;7.50;99.90;;;;;;4956257;29;20019;-75
2021/10/12 05:35:47;;;;;;;110.65;52.53;;;7.50;99.90;;;;;;4938066;29;20035;-74
2021/10/12 05:38:13;;;;;;;101.22;50.35;;;7.50;99.90;;;;;;4919912;29;20091;-74
2021/10/12 05:40:38;;;;;;;95.72;48.25;;;7.60;99.90;;;;;;4942218;29;20027;-74
2021/10/12 05:43:04;;;;;;;99.47;49.38;;;7.60;99.90;;;;;;4927129;29;20118;-73
2021/10/12 05:45:30;;;;;;;91.57;49.70;;;7.60;99.90;;;;;;4942435;29;20027;-74
2021/10/12 05:47:55;;;;;;;106.85;52.22;;;7.60;99.90;;;;;;4955887;29;20031;-77
2021/10/12 05:50:21;;;;;;;118.30;61.08;;;7.60;99.90;;;;;;4933175;29;20047;-75
2021/10/12 05:55:44;;;;;;;118.95;55.45;;;7.60;99.90;;;;;;4948800;29;20055;-74
2021/10/12 05:58:12;;;;;;;129.57;66.93;;;7.60;99.90;;;;;;4949474;29;20396;-74
2021/10/12 06:00:37;;;;;;;145.50;75.70;;;7.60;99.90;;;;;;4950466;29;20110;-74
2021/10/12 06:03:03;;;;;;;133.15;64.47;;;7.60;99.90;;;;;;4955637;29;20118;-74
2021/10/12 06:05:29;;;;;;;172.90;87.07;;;7.60;99.90;;;;;;4955604;29;20031;-74
2021/10/12 06:07:54;;;;;;;182.63;92.95;;;7.60;99.90;;;;;;4952122;29;20039;-74
2021/10/12 06:10:20;;;;;;;209.77;99.95;;;7.60;99.90;;;;;;4966015;28;20049;-74
2021/10/12 06:12:46;;;;;;;188.05;93.35;;;7.60;99.90;;;;;;4941046;29;20503;-74
2021/10/12 06:15:12;;;;;;;128.05;60.63;;;7.70;99.90;;;;;;4928759;29;20035;-75
2021/10/12 06:17:37;;;;;;;130.77;57.08;;;7.70;99.90;;;;;;4949320;29;20102;-75
2021/10/12 06:20:03;;;;;;;130.07;55.05;;;7.70;99.90;;;;;;4928787;29;20023;-75
2021/10/12 06:22:29;;;;;;;116.45;52.92;;;7.70;99.90;;;;;;4952088;29;20143;-75
2021/10/12 06:24:54;;;;;;;123.97;53.22;;;7.60;99.90;;;;;;4945728;29;20507;-76
2021/10/12 06:27:20;;;;;;;114.70;52.78;;;7.70;99.90;;;;;;4952561;29;20099;-75
2021/10/12 06:29:46;;;;;;;124.07;54.60;;;7.70;99.90;;;;;;4945334;29;20062;-75
2021/10/12 06:32:12;;;;;;;121.63;53.28;;;7.70;99.90;;;;;;4942411;29;20034;-75
2021/10/12 06:34:37;;;;;;;128.30;55.35;;;7.80;99.90;;;;;;4946474;29;20032;-75
2021/10/12 06:37:03;;;;;;;107.47;50.53;;;7.80;99.90;;;;;;4948643;28;20118;-75
2021/10/12 06:39:29;;;;;;;107.18;50.17;;;7.80;99.90;;;;;;4944936;29;20449;-75
2021/10/12 06:41:54;;;;;;;113.18;51.55;;;7.80;99.90;;;;;;4942207;29;20031;-75
2021/10/12 06:44:20;;;;;;;114.25;51.50;;;7.80;99.90;;;;;;4946227;29;20406;-75
2021/10/12 06:46:46;;;;;;;100.22;48.30;;;7.90;99.90;;;;;;4948684;29;20070;-75
2021/10/12 06:49:11;;;;;;;101.53;48.65;;;7.90;99.90;;;;;;4918849;29;20034;-75
2021/10/12 06:51:37;;;;;;;88.10;45.47;;;7.90;99.90;;;;;;4950522;29;20392;-75
2021/10/12 06:54:02;;;;;;;95.72;48.40;;;8.00;99.90;;;;;;4946333;29;20475;-75
2021/10/12 06:56:28;;;;;;;86.95;43.90;;;8.00;99.90;;;;;;4948457;29;20516;-75
2021/10/12 06:58:54;;;;;;;78.13;43.10;;;8.00;99.90;;;;;;4944028;29;20031;-75
2021/10/12 07:01:20;;;;;;;83.88;43.65;;;8.10;99.90;;;;;;4940117;29;20074;-75
2021/10/12 07:03:45;;;;;;;79.30;42.90;;;8.10;99.90;;;;;;4926708;29;20027;-74
2021/10/12 07:06:11;;;;;;;83.43;43.97;;;8.20;99.90;;;;;;4924423;29;20035;-75
2021/10/12 07:08:36;;;;;;;73.32;40.70;;;8.20;99.90;;;;;;4954641;29;20105;-75
2021/10/12 07:11:02;;;;;;;64.90;38.63;;;8.30;99.90;;;;;;4937466;29;20027;-75
2021/10/12 07:13:30;;;;;;;80.55;41.72;;;8.30;99.90;;;;;;4954550;29;20112;-75
2021/10/12 07:15:56;;;;;;;71.35;40.15;;;8.30;99.90;;;;;;4924455;29;20078;-75
2021/10/12 07:18:23;;;;;;;76.85;41.15;;;8.20;99.90;;;;;;4945234;29;20024;-74
2021/10/12 07:20:48;;;;;;;68.82;39.13;;;8.30;99.90;;;;;;4930845;29;20110;-74
2021/10/12 07:23:14;;;;;;;70.57;38.13;;;8.40;99.90;;;;;;4943191;29;20074;-75
2021/10/12 07:25:39;;;;;;;65.88;37.55;;;8.40;99.90;;;;;;4952039;29;20039;-74
2021/10/12 07:28:05;;;;;;;70.53;37.55;;;8.40;99.90;;;;;;4945079;29;20035;-74
2021/10/12 07:30:31;;;;;;;64.43;36.45;;;8.50;99.90;;;;;;4924166;29;20502;-74
2021/10/12 07:32:56;;;;;;;57.90;34.45;;;8.50;99.90;;;;;;4954236;29;20477;-74
2021/10/12 07:35:22;;;;;;;60.55;36.35;;;8.50;99.90;;;;;;4941223;29;20031;-74
2021/10/12 07:37:47;;;;;;;59.17;33.40;;;8.50;99.90;;;;;;4928166;29;20032;-74
2021/10/12 07:40:13;;;;;;;49.95;28.85;;;8.50;99.90;;;;;;4947803;29;20047;-75
2021/10/12 07:42:39;;;;;;;41.63;27.33;;;8.60;99.90;;;;;;4943684;29;20160;-74
2021/10/12 07:45:06;;;;;;;42.35;27.02;;;8.60;99.90;;;;;;4941324;29;20478;-74
2021/10/12 07:47:31;;;;;;;36.80;26.00;;;8.70;99.90;;;;;;4944123;29;20036;-74
2021/10/12 07:49:57;;;;;;;39.35;25.92;;;8.70;99.90;;;;;;4947588;29;20038;-74
2021/10/12 07:52:22;;;;;;;35.45;23.48;;;8.80;99.90;;;;;;4943840;29;20031;-74
2021/10/12 07:54:51;;;;;;;33.83;20.65;;;9.00;99.90;;;;;;4941303;29;20510;-74
2021/10/12 07:57:18;;;;;;;28.17;19.73;;;9.10;99.90;;;;;;4944101;29;20027;-75
2021/10/12 07:59:45;;;;;;;28.55;19.25;;;9.20;99.90;;;;;;4947333;29;20066;-75
2021/10/12 08:02:16;;;;;;;25.63;17.67;;;9.10;99.90;;;;;;4927472;29;20027;-74
2021/10/12 08:04:42;;;;;;;26.13;17.58;;;9.10;99.90;;;;;;4923952;29;20054;-74
2021/10/12 08:07:08;;;;;;;21.15;15.32;;;9.20;99.90;;;;;;4943037;29;20028;-74
2021/10/12 08:09:34;;;;;;;21.88;15.70;;;9.10;99.90;;;;;;4960531;28;20027;-74
2021/10/12 08:12:01;;;;;;;22.23;14.93;;;9.00;99.90;;;;;;4962718;28;20454;-74
2021/10/12 08:14:27;;;;;;;19.77;15.20;;;9.00;99.90;;;;;;4953703;29;20134;-75
2021/10/12 08:16:53;;;;;;;21.42;15.18;;;9.10;99.90;;;;;;4926282;29;20497;-74
2021/10/12 08:19:18;;;;;;;21.15;13.48;;;9.00;99.90;;;;;;4947526;29;20114;-75
2021/10/12 08:21:44;;;;;;;18.67;12.45;;;9.00;99.90;;;;;;4927446;29;20030;-75
2021/10/12 08:24:11;;;;;;;14.55;11.07;;;8.90;99.90;;;;;;4940721;29;20501;-74
2021/10/12 08:26:36;;;;;;;14.45;11.13;;;8.90;99.90;;;;;;4936185;28;20481;-74
2021/10/12 08:29:02;;;;;;;15.60;11.52;;;8.90;99.90;;;;;;4923861;29;20038;-74
2021/10/12 08:31:28;;;;;;;15.98;11.05;;;8.80;99.90;;;;;;4926668;29;20111;-75
2021/10/12 08:33:53;;;;;;;15.43;11.48;;;8.90;99.90;;;;;;4947541;29;20414;-75
2021/10/12 08:36:19;;;;;;;15.70;10.63;;;8.90;99.90;;;;;;4943887;29;20453;-74
2021/10/12 08:38:45;;;;;;;19.90;12.35;;;8.90;99.90;;;;;;4940714;29;20046;-75
2021/10/12 08:41:11;;;;;;;14.23;10.02;;;8.90;99.90;;;;;;4926733;29;20051;-75
2021/10/12 08:43:39;;;;;;;15.98;10.68;;;9.00;99.90;;;;;;4950188;29;20051;-75
2021/10/12 08:46:05;;;;;;;13.32;10.80;;;8.90;99.90;;;;;;4936197;29;20437;-75
2021/10/12 08:48:33;;;;;;;14.98;10.63;;;9.00;99.90;;;;;;4937163;29;20475;-75
2021/10/12 08:51:00;;;;;;;14.05;10.55;;;9.00;99.90;;;;;;4945634;28;20031;-75
2021/10/12 08:53:27;;;;;;;14.05;9.82;;;9.00;99.90;;;;;;4923326;29;20055;-76
2021/10/12 08:55:53;;;;;;;13.10;9.98;;;9.10;99.90;;;;;;4953476;29;20023;-75
2021/10/12 08:58:18;;;;;;;13.63;9.50;;;9.20;99.90;;;;;;4962503;28;20110;-75
2021/10/12 09:00:44;;;;;;;10.77;7.88;;;9.30;99.90;;;;;;4936739;29;20027;-75
2021/10/12 09:06:02;;;;;;;8.57;7.28;;;9.50;99.90;;;;;;4970348;28;20023;-74
2021/10/12 09:08:39;;;;;;;11.02;7.57;;;9.60;99.90;;;;;;4964148;28;20033;-75
2021/10/12 09:11:22;;;;;;;9.82;7.22;;;9.70;99.90;;;;;;4962885;28;20070;-73
2021/10/12 09:13:50;;;;;;;9.43;6.80;;;9.60;99.90;;;;;;4967978;28;20034;-73
2021/10/12 09:16:17;;;;;;;9.00;6.63;;;9.60;99.90;;;;;;4969816;28;20071;-73
2021/10/12 09:18:51;;;;;;;9.35;6.47;;;9.50;99.90;;;;;;4973116;28;20015;-73
2021/10/12 09:21:26;;;;;;;7.95;6.35;;;9.40;99.90;;;;;;4972171;28;20082;-73
2021/10/12 09:24:16;;;;;;;7.32;6.40;;;9.30;99.90;;;;;;4952251;28;20023;-73
2021/10/12 09:26:46;;;;;;;7.65;6.38;;;9.40;99.90;;;;;;4969314;28;20038;-73
2021/10/12 09:29:18;;;;;;;10.38;7.53;;;9.40;99.90;;;;;;4967231;28;20023;-73
2021/10/12 09:31:45;;;;;;;9.10;6.50;;;9.50;99.90;;;;;;4972923;28;20035;-73
2021/10/12 09:34:13;;;;;;;10.27;6.65;;;9.50;99.90;;;;;;4973926;28;20070;-73
2021/10/12 09:36:40;;;;;;;8.60;6.03;;;9.70;99.90;;;;;;4973312;28;20034;-73
2021/10/12 09:39:14;;;;;;;8.70;6.60;;;9.70;99.90;;;;;;4971144;28;20118;-73
2021/10/12 09:41:40;;;;;;;9.25;6.40;;;9.60;99.90;;;;;;4949970;28;20401;-73
2021/10/12 09:44:16;;;;;;;9.45;6.65;;;9.70;99.90;;;;;;4951825;28;20027;-73
2021/10/12 09:46:47;;;;;;;7.68;6.32;;;9.80;99.90;;;;;;4972492;28;20026;-74
2021/10/12 09:49:24;;;;;;;9.75;7.85;;;9.90;99.90;;;;;;4970140;28;20019;-74
2021/10/12 09:52:00;;;;;;;10.75;6.75;;;9.90;99.90;;;;;;4972857;28;20058;-73
2021/10/12 09:54:29;;;;;;;9.10;6.10;;;9.90;99.90;;;;;;4953915;28;20030;-73
2021/10/12 09:56:56;;;;;;;7.55;6.57;;;9.80;99.90;;;;;;4970007;28;20062;-73
2021/10/12 09:59:22;;;;;;;8.80;6.85;;;9.80;99.90;;;;;;4949498;28;20046;-73
2021/10/12 10:01:48;;;;;;;7.20;6.00;;;9.80;99.90;;;;;;4967860;28;20030;-74
2021/10/12 10:04:22;;;;;;;7.85;6.78;;;9.60;99.90;;;;;;4972808;28;20045;-73
2021/10/12 10:06:49;;;;;;;8.52;5.80;;;9.70;99.90;;;;;;4974267;28;20027;-73
2021/10/12 10:09:20;;;;;;;7.72;6.10;;;9.70;99.90;;;;;;4967798;28;20094;-73
2021/10/12 10:11:46;;;;;;;8.32;5.32;;;9.70;99.90;;;;;;4972087;28;20037;-74
2021/10/12 10:14:12;;;;;;;6.93;5.50;;;9.70;99.90;;;;;;4958511;28;20027;-74
2021/10/12 10:16:48;;;;;;;10.50;5.80;;;9.70;99.90;;;;;;4962697;28;20031;-74
2021/10/12 10:19:22;;;;;;;9.57;5.27;;;9.90;99.90;;;;;;4958484;28;20401;-75
2021/10/12 10:21:49;;;;;;;8.93;5.10;;;10.00;99.90;;;;;;4939871;29;20270;-74
2021/10/12 10:24:37;;;;;;;6.28;5.20;;;10.00;99.90;;;;;;4956801;29;20027;-74
2021/10/12 10:27:04;;;;;;;6.30;4.68;;;10.00;99.90;;;;;;4944374;29;20059;-74
2021/10/12 10:29:38;;;;;;;5.72;4.60;;;10.10;99.90;;;;;;4955336;28;20028;-74
2021/10/12 10:32:17;;;;;;;6.72;4.97;;;10.10;99.90;;;;;;4955039;29;20054;-74
2021/10/12 10:34:56;;;;;;;7.03;4.75;;;10.00;99.90;;;;;;4955214;28;20059;-74
2021/10/12 10:37:25;;;;;;;5.25;4.75;;;10.10;99.90;;;;;;4955186;29;20118;-73
2021/10/12 10:39:55;;;;;;;5.82;5.10;;;9.90;99.90;;;;;;4955026;29;20102;-74
2021/10/12 10:42:26;;;;;;;8.70;5.32;;;9.90;99.90;;;;;;4964016;28;20390;-74
2021/10/12 10:44:53;;;;;;;5.70;5.10;;;9.80;99.90;;;;;;4965277;28;20162;-74
2021/10/12 10:47:41;;;;;;;9.18;5.00;;;9.80;99.90;;;;;;4964134;28;20497;-73
2021/10/12 10:50:24;;;;;;;6.72;5.22;;;9.80;99.90;;;;;;4947972;28;20023;-73
2021/10/12 10:52:52;;;;;;;5.90;4.90;;;9.70;99.90;;;;;;4955672;28;20031;-74
2021/10/12 10:55:22;;;;;;;8.40;5.35;;;9.70;99.90;;;;;;4963602;28;20540;-73
2021/10/12 10:58:13;;;;;;;9.90;6.28;;;9.60;99.90;;;;;;4965574;28;20029;-74
2021/10/12 11:00:54;;;;;;;5.95;5.07;;;9.60;99.90;;;;;;4953567;28;20106;-73
2021/10/12 11:03:25;;;;;;;7.50;5.80;;;9.50;99.90;;;;;;4964884;28;20385;-74
2021/10/12 11:05:52;;;;;;;7.13;6.03;;;9.60;99.90;;;;;;4948596;28;20113;-74
2021/10/12 11:08:24;;;;;;;6.35;5.75;;;9.50;99.90;;;;;;4963672;28;20019;-74
2021/10/12 11:11:04;;;;;;;10.27;6.50;;;9.60;99.90;;;;;;4962867;28;20023;-74
2021/10/12 11:13:41;;;;;;;7.72;6.20;;;9.60;99.90;;;;;;4947948;28;20027;-74
2021/10/12 11:16:12;;;;;;;8.80;6.40;;;9.50;99.90;;;;;;4968260;28;20019;-74
2021/10/12 11:18:39;;;;;;;7.90;6.43;;;9.50;99.90;;;;;;4934113;28;20022;-74
2021/10/12 11:21:07;;;;;;;8.88;6.43;;;9.60;99.90;;;;;;4957884;28;20064;-74
2021/10/12 11:23:40;;;;;;;8.65;6.55;;;9.80;99.90;;;;;;4939498;28;20477;-74
2021/10/12 11:26:14;;;;;;;9.57;6.70;;;9.70;99.90;;;;;;4958652;28;20051;-74
2021/10/12 11:28:46;;;;;;;10.70;7.28;;;9.70;99.90;;;;;;4956840;28;20023;-74
2021/10/12 11:31:14;;;;;;;14.68;7.88;;;9.70;99.90;;;;;;4962293;28;20504;-73
2021/10/12 11:33:48;;;;;;;10.60;7.80;;;9.70;99.90;;;;;;4948772;29;20032;-73
2021/10/12 11:36:18;;;;;;;10.63;7.97;;;9.60;99.90;;;;;;4969096;28;20390;-73
2021/10/12 11:38:59;;;;;;;9.13;7.68;;;9.60;99.90;;;;;;4944496;29;20086;-74
2021/10/12 11:41:34;;;;;;;10.75;8.15;;;9.60;99.90;;;;;;4965772;28;20034;-74
2021/10/12 11:44:12;;;;;;;10.20;8.70;;;9.50;99.90;;;;;;4940367;29;20023;-73
2021/10/12 11:46:44;;;;;;;12.10;8.60;;;9.60;99.90;;;;;;4949357;29;20639;-73
2021/10/12 11:49:12;;;;;;;12.07;9.05;;;9.60;99.90;;;;;;4950626;29;20038;-74
2021/10/12 11:51:39;;;;;;;12.85;9.20;;;9.70;99.90;;;;;;4944093;29;20094;-74
2021/10/12 11:54:06;;;;;;;14.00;9.30;;;9.90;99.90;;;;;;4941920;29;20027;-74
2021/10/12 11:56:34;;;;;;;11.95;8.63;;;10.00;99.90;;;;;;4919535;29;20035;-76
2021/10/12 11:59:01;;;;;;;11.88;9.70;;;10.20;99.90;;;;;;4917687;29;20494;-73
2021/10/12 12:01:40;;;;;;;14.20;9.80;;;10.30;99.90;;;;;;4934383;29;20036;-73
2021/10/12 12:04:06;;;;;;;12.68;9.38;;;10.30;99.90;;;;;;4934731;29;20483;-73
2021/10/12 12:06:42;;;;;;;12.15;9.60;;;10.20;99.90;;;;;;4935493;29;20507;-72
2021/10/12 12:09:19;;;;;;;12.07;9.25;;;10.30;99.90;;;;;;4954043;28;20082;-74
2021/10/12 12:11:45;;;;;;;10.82;8.32;;;10.10;99.90;;;;;;4964364;28;20027;-74
2021/10/12 12:14:11;;;;;;;9.70;7.85;;;10.00;99.90;;;;;;4936272;29;20055;-74
2021/10/12 12:16:37;;;;;;;10.60;8.20;;;9.90;99.90;;;;;;4960535;28;20334;-73
2021/10/12 12:19:22;;;;;;;10.30;7.57;;;9.90;99.90;;;;;;4957784;28;20043;-74
2021/10/12 12:21:49;;;;;;;9.40;7.07;;;9.90;99.90;;;;;;4953578;28;20031;-74
2021/10/12 12:24:23;;;;;;;9.65;6.93;;;9.80;99.90;;;;;;4936169;29;20035;-73
2021/10/12 12:27:02;;;;;;;10.80;6.90;;;9.80;99.90;;;;;;4936117;29;20521;-74
2021/10/12 12:29:28;;;;;;;9.43;7.40;;;9.80;99.90;;;;;;4934391;29;20039;-73
2021/10/12 12:31:56;;;;;;;10.85;7.32;;;9.80;99.90;;;;;;4917097;29;20020;-74
2021/10/12 12:34:26;;;;;;;11.43;7.70;;;9.70;99.90;;;;;;4935600;29;20024;-74
2021/10/12 12:36:51;;;;;;;11.05;8.02;;;9.70;99.90;;;;;;4920850;29;20059;-74
2021/10/12 12:39:17;;;;;;;10.10;7.80;;;9.70;99.90;;;;;;4938173;29;20063;-74
2021/10/12 12:41:43;;;;;;;9.98;8.10;;;9.70;99.90;;;;;;4937809;29;20106;-73